createdAt,value
2024-01-28T00:01:39.078Z,21
2024-01-28T00:04:11.182Z,24
2024-01-28T00:06:40.890Z,26
2024-01-28T00:11:59.720Z,21
2024-01-28T00:14:30.048Z,25
2024-01-28T00:17:00.263Z,24
2024-01-28T00:19:30.772Z,28
2024-01-28T00:22:00.876Z,25
2024-01-28T00:24:31.261Z,32
2024-01-28T00:27:01.171Z,29
2024-01-28T00:29:31.234Z,23
2024-01-28T00:32:02.181Z,24
2024-01-28T00:34:32.933Z,59
2024-01-28T00:37:03.076Z,42
2024-01-28T00:39:33.336Z,39
2024-01-28T00:42:05.429Z,87
2024-01-28T00:44:35.954Z,91
2024-01-28T00:47:07.067Z,98
2024-01-28T00:49:37.541Z,69
2024-01-28T00:52:07.642Z,71
2024-01-28T00:54:37.696Z,85
2024-01-28T00:57:08.204Z,84
2024-01-28T00:59:38.225Z,67
2024-01-28T01:02:08.521Z,56
2024-01-28T01:04:38.543Z,49
2024-01-28T01:07:08.803Z,44
2024-01-28T01:09:38.722Z,37
2024-01-28T01:12:08.976Z,27
2024-01-28T01:14:39.293Z,33
2024-01-28T01:17:09.519Z,39
2024-01-28T01:19:40.222Z,28
2024-01-28T01:22:10.282Z,23
2024-01-28T01:24:40.609Z,33
2024-01-28T01:27:10.798Z,27
2024-01-28T01:29:41.265Z,28
2024-01-28T01:32:11.850Z,22
2024-01-28T01:34:41.809Z,23
2024-01-28T01:37:11.943Z,28
2024-01-28T01:39:42.066Z,23
2024-01-28T01:42:12.167Z,25
2024-01-28T01:44:42.429Z,29
2024-01-28T01:47:12.621Z,25
2024-01-28T01:49:43.452Z,27
2024-01-28T01:52:13.401Z,25
2024-01-28T01:54:43.613Z,25
2024-01-28T01:57:13.547Z,22
2024-01-28T01:59:43.932Z,45
2024-01-28T02:02:14.136Z,28
2024-01-28T02:04:44.980Z,24
2024-01-28T02:07:15.982Z,25
2024-01-28T02:09:46.947Z,24
2024-01-28T02:12:17.425Z,27
2024-01-28T02:14:48.098Z,36
2024-01-28T02:17:20.254Z,32
2024-01-28T02:19:50.992Z,27
2024-01-28T02:22:21.968Z,23
2024-01-28T02:24:51.995Z,31
2024-01-28T02:27:22.534Z,32
2024-01-28T02:29:51.252Z,27
2024-01-28T02:32:21.840Z,24
2024-01-28T02:34:52.407Z,26
2024-01-28T02:37:23.418Z,28
2024-01-28T02:39:55.118Z,28
2024-01-28T02:42:25.701Z,26
2024-01-28T02:44:56.025Z,33
2024-01-28T02:47:26.634Z,31
2024-01-28T02:49:58.540Z,29
2024-01-28T02:52:29.180Z,29
2024-01-28T02:55:02.858Z,23
2024-01-28T02:57:33.076Z,31
2024-01-28T03:00:03.313Z,28
2024-01-28T03:02:33.634Z,25
2024-01-28T03:05:03.929Z,24
2024-01-28T03:07:35.213Z,28
2024-01-28T03:10:05.971Z,29
2024-01-28T03:12:36.431Z,36
2024-01-28T03:15:07.140Z,23
2024-01-28T03:17:37.698Z,27
2024-01-28T03:20:08.055Z,24
2024-01-28T03:22:38.484Z,21
2024-01-28T03:25:10.554Z,30
2024-01-28T03:27:40.853Z,24
2024-01-28T03:30:11.328Z,26
2024-01-28T03:32:43.788Z,26
2024-01-28T03:35:11.951Z,24
2024-01-28T03:37:42.841Z,22
2024-01-28T03:40:13.557Z,27
2024-01-28T03:42:44.260Z,21
2024-01-28T03:45:14.581Z,23
2024-01-28T03:47:45.733Z,23
2024-01-28T03:50:15.197Z,29
2024-01-28T03:52:45.940Z,24
2024-01-28T03:55:16.281Z,30
2024-01-28T03:57:46.610Z,27
2024-01-28T04:00:18.001Z,27
2024-01-28T04:02:49.284Z,36
2024-01-28T04:05:19.908Z,46
2024-01-28T04:07:51.192Z,33
2024-01-28T04:10:21.555Z,26
2024-01-28T04:12:52.185Z,19
2024-01-28T04:15:22.481Z,22
2024-01-28T04:17:54.743Z,17
2024-01-28T04:20:25.630Z,20
2024-01-28T04:22:55.932Z,21
2024-01-28T04:25:27.054Z,25
2024-01-28T04:27:57.731Z,21
2024-01-28T04:30:28.175Z,24
2024-01-28T04:32:58.518Z,31
2024-01-28T04:35:29.628Z,29
2024-01-28T04:38:00.489Z,24
2024-01-28T04:40:31.194Z,24
2024-01-28T04:43:01.610Z,23
2024-01-28T04:45:32.510Z,20
2024-01-28T04:48:03.253Z,25
2024-01-28T04:50:33.759Z,29
2024-01-28T04:53:05.470Z,31
2024-01-28T04:55:35.902Z,25
2024-01-28T04:58:06.586Z,28
2024-01-28T05:00:36.771Z,24
2024-01-28T05:03:06.994Z,24
2024-01-28T05:05:37.527Z,29
2024-01-28T05:08:08.571Z,21
2024-01-28T05:10:38.915Z,23
2024-01-28T05:13:09.802Z,25
2024-01-28T05:15:40.129Z,24
2024-01-28T05:18:10.861Z,25
2024-01-28T05:20:40.750Z,23
2024-01-28T05:23:11.591Z,31
2024-01-28T05:25:42.301Z,25
2024-01-28T05:28:12.629Z,27
2024-01-28T05:30:42.901Z,27
2024-01-28T05:33:13.486Z,24
2024-01-28T05:35:43.798Z,32
2024-01-28T05:38:15.630Z,29
2024-01-28T05:40:46.139Z,25
2024-01-28T05:43:16.334Z,36
2024-01-28T05:45:46.682Z,25
2024-01-28T05:48:17.054Z,32
2024-01-28T05:50:47.599Z,21
2024-01-28T05:53:22.574Z,20
2024-01-28T05:55:53.121Z,25
2024-01-28T05:58:23.693Z,21
2024-01-28T06:00:54.410Z,28
2024-01-28T06:03:24.502Z,24
2024-01-28T06:05:55.613Z,27
2024-01-28T06:08:27.098Z,25
2024-01-28T06:10:57.430Z,25
2024-01-28T06:13:27.672Z,26
2024-01-28T06:15:58.150Z,30
2024-01-28T06:18:28.230Z,24
2024-01-28T06:20:58.818Z,39
2024-01-28T06:23:30.222Z,24
2024-01-28T06:26:00.574Z,23
2024-01-28T06:28:30.982Z,27
2024-01-28T06:31:01.382Z,27
2024-01-28T06:33:32.499Z,23
2024-01-28T06:36:04.819Z,22
2024-01-28T06:38:35.136Z,25
2024-01-28T06:41:06.166Z,29
2024-01-28T06:43:36.928Z,29
2024-01-28T06:46:08.396Z,30
2024-01-28T06:48:38.638Z,31
2024-01-28T06:51:09.081Z,25
2024-01-28T06:53:39.431Z,25
2024-01-28T06:56:10.302Z,27
2024-01-28T06:58:40.849Z,27
2024-01-28T07:01:11.084Z,24
2024-01-28T07:03:41.468Z,32
2024-01-28T07:06:11.854Z,34
2024-01-28T07:08:42.929Z,34
2024-01-28T07:11:13.665Z,36
2024-01-28T07:13:44.149Z,31
2024-01-28T07:16:14.836Z,32
2024-01-28T07:18:45.108Z,32
2024-01-28T07:21:15.421Z,32
2024-01-28T07:23:45.545Z,32
2024-01-28T07:26:14.470Z,32
2024-01-28T07:28:44.639Z,22
2024-01-28T07:31:15.263Z,28
2024-01-28T07:33:45.926Z,31
2024-01-28T07:36:15.769Z,32
2024-01-28T07:38:46.986Z,29
2024-01-28T07:41:17.485Z,29
2024-01-28T07:43:48.678Z,32
2024-01-28T07:46:20.188Z,29
2024-01-28T07:48:50.793Z,39
2024-01-28T07:51:21.785Z,33
2024-01-28T07:53:52.866Z,33
2024-01-28T07:56:23.516Z,29
2024-01-28T07:58:53.660Z,35
2024-01-28T08:01:24.407Z,38
2024-01-28T08:03:55.056Z,29
2024-01-28T08:06:26.164Z,36
2024-01-28T08:08:56.810Z,34
2024-01-28T08:11:28.750Z,32
2024-01-28T08:13:59.777Z,34
2024-01-28T08:16:29.807Z,41
2024-01-28T08:18:58.754Z,33
2024-01-28T08:21:28.787Z,41
2024-01-28T08:23:59.354Z,33
2024-01-28T08:26:29.943Z,34
2024-01-28T08:29:00.625Z,40
2024-01-28T08:31:32.599Z,35
2024-01-28T08:34:03.058Z,39
2024-01-28T08:36:34.352Z,34
2024-01-28T08:39:04.320Z,48
2024-01-28T08:41:36.351Z,36
2024-01-28T08:44:08.554Z,36
2024-01-28T08:46:39.182Z,40
2024-01-28T08:49:09.434Z,24
2024-01-28T08:51:40.046Z,38
2024-01-28T08:54:10.852Z,27
2024-01-28T08:56:41.292Z,45
2024-01-28T08:59:13.582Z,28
2024-01-28T09:01:44.664Z,31
2024-01-28T09:04:15.621Z,36
2024-01-28T09:06:45.972Z,39
2024-01-28T09:09:16.060Z,29
2024-01-28T09:11:49.057Z,29
2024-01-28T09:14:17.659Z,35
2024-01-28T09:16:48.798Z,32
2024-01-28T09:19:19.466Z,36
2024-01-28T09:21:49.447Z,43
2024-01-28T09:24:19.752Z,42
2024-01-28T09:26:50.033Z,44
2024-01-28T09:29:20.889Z,44
2024-01-28T09:31:51.226Z,44
2024-01-28T09:34:21.917Z,36
2024-01-28T09:36:52.170Z,34
2024-01-28T09:39:25.613Z,39
2024-01-28T09:41:55.690Z,35
2024-01-28T09:44:32.486Z,42
2024-01-28T09:47:01.431Z,31
2024-01-28T09:49:34.990Z,29
2024-01-28T09:52:05.889Z,34
2024-01-28T09:54:37.208Z,36
2024-01-28T09:57:07.323Z,49
2024-01-28T09:59:37.543Z,48
2024-01-28T10:02:07.857Z,37
2024-01-28T10:04:38.455Z,31
2024-01-28T10:07:17.264Z,30
2024-01-28T10:09:50.611Z,26
2024-01-28T10:12:20.398Z,40
2024-01-28T10:17:52.451Z,32
2024-01-28T10:20:38.925Z,28
2024-01-28T10:23:09.091Z,35
2024-01-28T10:25:39.179Z,42
2024-01-28T10:28:10.235Z,32
2024-01-28T10:30:40.466Z,42
2024-01-28T10:33:12.798Z,38
2024-01-28T10:35:40.427Z,32
2024-01-28T10:38:10.727Z,36
2024-01-28T10:40:40.874Z,39
2024-01-28T10:43:11.262Z,36
2024-01-28T10:45:41.715Z,38
2024-01-28T10:51:06.898Z,27
2024-01-28T10:56:28.488Z,37
2024-01-28T10:58:58.467Z,35
2024-01-28T11:01:30.805Z,42
2024-01-28T11:04:01.054Z,34
2024-01-28T11:06:31.209Z,45
2024-01-28T11:09:01.066Z,35
2024-01-28T11:11:30.980Z,40
2024-01-28T11:14:01.633Z,34
2024-01-28T11:16:31.439Z,32
2024-01-28T11:19:01.803Z,47
2024-01-28T11:21:32.108Z,30
2024-01-28T11:24:02.448Z,28
2024-01-28T11:26:32.554Z,34
2024-01-28T11:29:02.704Z,33
2024-01-28T11:31:32.595Z,31
2024-01-28T11:34:03.115Z,29
2024-01-28T11:36:33.352Z,37
2024-01-28T11:39:03.443Z,28
2024-01-28T11:41:33.477Z,36
2024-01-28T11:44:03.474Z,35
2024-01-28T11:46:34.902Z,26
2024-01-28T11:49:05.851Z,25
2024-01-28T11:51:36.614Z,29
2024-01-28T11:54:06.768Z,36
2024-01-28T11:56:43.148Z,24
2024-01-28T11:59:11.950Z,30
2024-01-28T12:01:42.183Z,31
2024-01-28T12:04:12.791Z,30
2024-01-28T12:06:47.960Z,33
2024-01-28T12:09:26.756Z,37
2024-01-28T12:11:56.775Z,32
2024-01-28T12:14:27.002Z,38
2024-01-28T12:19:56.748Z,35
2024-01-28T12:22:26.671Z,28
2024-01-28T12:24:56.238Z,32
2024-01-28T12:27:24.894Z,36
2024-01-28T12:29:54.783Z,36
2024-01-28T12:32:25.468Z,27
2024-01-28T12:34:55.566Z,28
2024-01-28T12:37:26.636Z,31
2024-01-28T12:39:55.837Z,29
2024-01-28T12:42:25.826Z,28
2024-01-28T12:44:55.704Z,28
2024-01-28T12:47:25.828Z,26
2024-01-28T12:49:55.879Z,28
2024-01-28T12:52:25.781Z,27
2024-01-28T12:54:56.655Z,31
2024-01-28T12:57:26.841Z,34
2024-01-28T12:59:56.848Z,36
2024-01-28T13:02:25.782Z,32
2024-01-28T13:04:55.745Z,30
2024-01-28T13:07:26.007Z,24
2024-01-28T13:09:54.618Z,34
2024-01-28T13:12:27.088Z,40
2024-01-28T13:14:57.322Z,37
2024-01-28T13:17:27.606Z,29
2024-01-28T13:19:57.942Z,31
2024-01-28T13:22:27.978Z,29
2024-01-28T13:24:56.512Z,46
2024-01-28T13:27:26.492Z,43
2024-01-28T13:29:56.756Z,38
2024-01-28T13:32:26.798Z,40
2024-01-28T13:34:57.368Z,40
2024-01-28T13:37:27.450Z,40
2024-01-28T13:39:57.699Z,40
2024-01-28T13:42:27.876Z,48
2024-01-28T13:44:58.418Z,43
2024-01-28T13:47:27.402Z,44
2024-01-28T13:49:57.605Z,43
2024-01-28T13:52:27.693Z,42
2024-01-28T13:54:57.927Z,43
2024-01-28T13:57:28.097Z,44
2024-01-28T14:00:00.104Z,43
2024-01-28T14:02:30.602Z,60
2024-01-28T14:05:00.839Z,44
2024-01-28T14:07:31.091Z,44
2024-01-28T14:10:01.217Z,38
2024-01-28T14:12:33.194Z,44
2024-01-28T14:15:03.471Z,51
2024-01-28T14:17:36.497Z,57
2024-01-28T14:20:05.128Z,49
2024-01-28T14:25:21.454Z,46
2024-01-28T14:27:58.124Z,50
2024-01-28T14:30:28.312Z,46
2024-01-28T14:32:58.590Z,57
2024-01-28T14:35:28.577Z,45
2024-01-28T14:37:58.457Z,67
2024-01-28T14:40:28.808Z,55
2024-01-28T14:42:58.942Z,40
2024-01-28T14:45:29.501Z,52
2024-01-28T14:47:59.736Z,48
2024-01-28T14:50:30.459Z,47
2024-01-28T14:53:00.578Z,44
2024-01-28T14:55:30.810Z,43
2024-01-28T14:58:00.698Z,49
2024-01-28T15:00:30.962Z,38
2024-01-28T15:03:01.178Z,34
2024-01-28T15:05:31.441Z,38
2024-01-28T15:08:01.783Z,58
2024-01-28T15:10:31.999Z,36
2024-01-28T15:13:03.319Z,38
2024-01-28T15:15:33.444Z,46
2024-01-28T15:18:03.483Z,44
2024-01-28T15:20:33.493Z,54
2024-01-28T15:23:03.788Z,60
2024-01-28T15:25:33.815Z,73
2024-01-28T15:28:03.912Z,63
2024-01-28T15:30:34.071Z,70
2024-01-28T15:33:04.400Z,51
2024-01-28T15:35:34.380Z,53
2024-01-28T15:38:04.476Z,52
2024-01-28T15:40:34.571Z,58
2024-01-28T15:43:04.614Z,77
2024-01-28T15:45:34.785Z,58
2024-01-28T15:48:04.949Z,59
2024-01-28T15:50:35.004Z,45
2024-01-28T15:53:05.335Z,65
2024-01-28T15:55:35.625Z,82
2024-01-28T15:58:05.684Z,56
2024-01-28T16:00:36.080Z,56
2024-01-28T16:03:06.221Z,55
2024-01-28T16:05:36.543Z,48
2024-01-28T16:08:10.539Z,46
2024-01-28T16:10:41.311Z,45
2024-01-28T16:13:14.294Z,59
2024-01-28T16:15:50.994Z,47
2024-01-28T16:18:29.143Z,64
2024-01-28T16:21:02.578Z,58
2024-01-28T16:26:08.406Z,51
2024-01-28T16:28:38.353Z,43
2024-01-28T16:31:08.260Z,49
2024-01-28T16:33:38.664Z,51
2024-01-28T16:36:08.585Z,53
2024-01-28T16:38:39.626Z,50
2024-01-28T16:41:12.204Z,61
2024-01-28T16:43:43.579Z,47
2024-01-28T16:46:13.705Z,56
2024-01-28T16:48:44.007Z,48
2024-01-28T16:51:13.819Z,53
2024-01-28T16:53:44.766Z,47
2024-01-28T16:56:14.563Z,54
2024-01-28T16:58:44.466Z,52
2024-01-28T17:01:14.598Z,65
2024-01-28T17:03:44.547Z,63
2024-01-28T17:06:14.814Z,59
2024-01-28T17:08:44.643Z,60
2024-01-28T17:11:14.827Z,62
2024-01-28T17:13:44.896Z,79
2024-01-28T17:16:14.960Z,79
2024-01-28T17:18:44.976Z,77
2024-01-28T17:21:14.977Z,70
2024-01-28T17:23:46.136Z,78
2024-01-28T17:26:16.065Z,73
2024-01-28T17:28:46.568Z,70
2024-01-28T17:31:16.890Z,76
2024-01-28T17:33:46.965Z,68
2024-01-28T17:36:16.976Z,89
2024-01-28T17:38:47.110Z,82
2024-01-28T17:41:17.097Z,77
2024-01-28T17:43:47.134Z,68
2024-01-28T17:46:17.181Z,53
2024-01-28T17:48:48.346Z,60
2024-01-28T17:51:18.204Z,58
2024-01-28T17:53:48.389Z,47
2024-01-28T17:56:18.582Z,57
2024-01-28T17:58:48.836Z,61
2024-01-28T18:01:18.814Z,67
2024-01-28T18:03:48.953Z,52
2024-01-28T18:06:18.677Z,63
2024-01-28T18:08:48.792Z,49
2024-01-28T18:11:19.155Z,48
2024-01-28T18:13:49.357Z,53
2024-01-28T18:16:19.404Z,49
2024-01-28T18:18:49.675Z,44
2024-01-28T18:21:19.786Z,46
2024-01-28T18:23:48.575Z,47
2024-01-28T18:26:18.650Z,43
2024-01-28T18:28:48.858Z,43
2024-01-28T18:31:19.087Z,43
2024-01-28T18:33:49.401Z,46
2024-01-28T18:36:20.019Z,48
2024-01-28T18:38:50.284Z,41
2024-01-28T18:41:20.604Z,49
2024-01-28T18:43:50.652Z,42
2024-01-28T18:46:20.483Z,39
2024-01-28T18:48:51.057Z,39
2024-01-28T18:51:21.109Z,36
2024-01-28T18:53:51.384Z,48
2024-01-28T18:56:21.459Z,44
2024-01-28T18:58:51.179Z,41
2024-01-28T19:01:21.475Z,41
2024-01-28T19:03:51.522Z,49
2024-01-28T19:06:22.043Z,41
2024-01-28T19:08:50.628Z,38
2024-01-28T19:11:21.797Z,52
2024-01-28T19:13:51.756Z,42
2024-01-28T19:16:22.242Z,43
2024-01-28T19:18:52.741Z,48
2024-01-28T19:21:21.628Z,49
2024-01-28T19:23:51.827Z,39
2024-01-28T19:26:22.022Z,39
2024-01-28T19:28:52.068Z,49
2024-01-28T19:31:21.970Z,59
2024-01-28T19:33:52.160Z,63
2024-01-28T19:36:22.036Z,64
2024-01-28T19:38:50.352Z,60
2024-01-28T19:41:20.238Z,66
2024-01-28T19:43:50.518Z,71
2024-01-28T19:46:20.481Z,70
2024-01-28T19:48:50.484Z,68
2024-01-28T19:51:20.204Z,69
2024-01-28T19:53:50.232Z,73
2024-01-28T19:56:20.287Z,75
2024-01-28T19:58:50.232Z,84
2024-01-28T20:01:20.534Z,87
2024-01-28T20:03:50.355Z,74
2024-01-28T20:06:27.936Z,79
2024-01-28T20:08:53.050Z,81
2024-01-28T20:11:22.912Z,104
2024-01-28T20:13:53.015Z,106
2024-01-28T20:16:23.060Z,100
2024-01-28T20:18:52.995Z,109
2024-01-28T20:23:54.480Z,115
2024-01-28T20:26:24.587Z,100
2024-01-28T20:28:54.906Z,107
2024-01-28T20:31:25.020Z,100
2024-01-28T20:33:55.091Z,99
2024-01-28T20:36:25.500Z,100
2024-01-28T20:38:55.756Z,117
2024-01-28T20:41:25.799Z,132
2024-01-28T20:43:55.919Z,113
2024-01-28T20:46:25.875Z,133
2024-01-28T20:48:56.671Z,126
2024-01-28T20:51:26.844Z,133
2024-01-28T20:53:57.325Z,112
2024-01-28T20:56:27.446Z,104
2024-01-28T20:58:57.601Z,103
2024-01-28T21:01:27.997Z,95
2024-01-28T21:03:58.090Z,102
2024-01-28T21:06:36.199Z,116
2024-01-28T21:09:06.702Z,116
2024-01-28T21:11:38.329Z,110
2024-01-28T21:14:08.375Z,104
2024-01-28T21:16:38.585Z,93
2024-01-28T21:19:09.328Z,100
2024-01-28T21:21:39.495Z,94
2024-01-28T21:24:09.281Z,87
2024-01-28T21:26:38.146Z,87
2024-01-28T21:29:08.298Z,120
2024-01-28T21:31:38.452Z,143
2024-01-28T21:34:09.167Z,142
2024-01-28T21:36:41.120Z,126
2024-01-28T21:41:40.023Z,148
2024-01-28T21:44:11.044Z,119
2024-01-28T21:46:41.432Z,159
2024-01-28T21:49:12.369Z,140
2024-01-28T21:51:43.120Z,139
2024-01-28T21:54:23.344Z,150
2024-01-28T21:56:57.858Z,122
2024-01-28T21:59:29.625Z,133
2024-01-28T22:02:00.273Z,137
2024-01-28T22:04:30.404Z,157
2024-01-28T22:07:00.437Z,139
2024-01-28T22:09:30.662Z,138
2024-01-28T22:12:02.679Z,113
2024-01-28T22:14:35.902Z,113
2024-01-28T22:17:06.737Z,123
2024-01-28T22:19:37.677Z,124
2024-01-28T22:22:08.333Z,121
2024-01-28T22:24:38.420Z,129
2024-01-28T22:27:08.834Z,123
2024-01-28T22:29:38.860Z,105
2024-01-28T22:32:09.445Z,127
2024-01-28T22:34:40.198Z,140
2024-01-28T22:37:10.826Z,159
2024-01-28T22:39:41.045Z,153
2024-01-28T22:42:11.571Z,165
2024-01-28T22:44:42.145Z,155
2024-01-28T22:47:12.198Z,157
2024-01-28T22:49:42.863Z,161
2024-01-28T22:52:13.784Z,162
2024-01-28T22:54:43.851Z,163
2024-01-28T22:57:14.267Z,170
2024-01-28T22:59:44.453Z,169
2024-01-28T23:02:16.142Z,156
2024-01-28T23:04:46.955Z,151
2024-01-28T23:07:18.263Z,156
2024-01-28T23:09:48.949Z,164
2024-01-28T23:12:19.085Z,187
2024-01-28T23:14:49.026Z,175
2024-01-28T23:17:19.574Z,183
2024-01-28T23:19:50.609Z,193
2024-01-28T23:22:21.449Z,195
2024-01-28T23:24:52.165Z,210
2024-01-28T23:27:22.175Z,197
2024-01-28T23:29:52.433Z,202
2024-01-28T23:32:22.787Z,200
2024-01-28T23:34:53.389Z,173
2024-01-28T23:37:24.193Z,189
2024-01-28T23:39:54.507Z,196
2024-01-28T23:42:24.904Z,185
2024-01-28T23:44:55.509Z,190
2024-01-28T23:47:26.516Z,198
2024-01-28T23:49:56.883Z,193
2024-01-28T23:52:27.626Z,186
2024-01-28T23:54:57.907Z,180
2024-01-28T23:57:28.635Z,189
